Time;durP1;ratioP1;P1;durP2;ratioP2;P2;SDS_P1;SDS_P2;PMS_P1;PMS_P2;Temp;Humidity;BMP_temperature;BMP_pressure;BME280_temperature;BME280_humidity;BME280_pressure;Samples;Min_cycle;Max_cycle;Signal;HPM_P1;HPM_P2
2023/08/07 00:02:06;;;;;;;13.10;4.53;;;;;;;11.53;100.00;101169.97;5039553;28;20242;-68
2023/08/07 00:04:32;;;;;;;12.68;4.13;;;;;;;11.54;100.00;101176.19;5041671;28;20033;-68
2023/08/07 00:06:57;;;;;;;14.80;4.53;;;;;;;11.55;100.00;101164.59;5039365;28;20017;-68
2023/08/07 00:09:22;;;;;;;11.95;4.22;;;;;;;11.55;100.00;101169.91;5034832;28;20033;-68
2023/08/07 00:11:48;;;;;;;13.48;4.50;;;;;;;11.58;100.00;101161.75;5039021;28;20315;-68
2023/08/07 00:14:13;;;;;;;13.00;3.88;;;;;;;11.58;100.00;101167.97;5037322;28;20061;-68
2023/08/07 00:16:39;;;;;;;11.23;4.03;;;;;;;11.58;100.00;101170.63;5041653;28;20017;-68
2023/08/07 00:19:04;;;;;;;10.40;4.20;;;;;;;11.61;100.00;101167.78;5040228;28;20372;-68
2023/08/07 00:21:29;;;;;;;14.43;3.85;;;;;;;11.64;100.00;101172.97;5034213;28;20025;-68
2023/08/07 00:23:55;;;;;;;11.25;4.20;;;;;;;11.65;100.00;101165.84;5040796;28;20180;-68
2023/08/07 00:26:20;;;;;;;11.80;3.97;;;;;;;11.65;100.00;101158.69;5041803;28;20228;-68
2023/08/07 00:28:46;;;;;;;11.82;3.90;;;;;;;11.66;100.00;101170.22;5037165;28;20121;-68
2023/08/07 00:31:12;;;;;;;13.38;4.13;;;;;;;11.69;100.00;101175.41;5037410;28;20234;-68
2023/08/07 00:33:37;;;;;;;12.10;3.85;;;;;;;11.72;100.00;101185.94;5036168;28;20040;-68
2023/08/07 00:36:03;;;;;;;11.05;4.38;;;;;;;11.70;100.00;101195.78;5039461;28;20538;-68
2023/08/07 00:38:29;;;;;;;10.68;3.42;;;;;;;11.65;100.00;101184.50;5037356;28;20029;-68
2023/08/07 00:40:54;;;;;;;11.18;4.13;;;;;;;11.70;100.00;101198.47;5041028;28;20013;-68
2023/08/07 00:43:19;;;;;;;10.60;3.97;;;;;;;11.62;100.00;101195.31;5037638;28;20025;-68
2023/08/07 00:45:47;;;;;;;13.05;4.55;;;;;;;11.55;100.00;101202.75;5040688;28;20033;-68
2023/08/07 00:48:13;;;;;;;12.70;3.67;;;;;;;11.46;100.00;101197.88;5035299;28;20119;-68
2023/08/07 00:50:40;;;;;;;10.25;4.07;;;;;;;11.42;100.00;101194.50;5037586;28;20044;-68
2023/08/07 00:53:06;;;;;;;9.93;3.92;;;;;;;11.38;100.00;101197.41;5036220;28;20036;-68
2023/08/07 00:55:32;;;;;;;12.52;3.75;;;;;;;11.38;100.00;101198.25;5040649;28;20083;-68
2023/08/07 00:57:59;;;;;;;10.82;4.40;;;;;;;11.32;100.00;101195.88;5038770;28;20120;-68
2023/08/07 01:00:26;;;;;;;9.35;4.00;;;;;;;11.28;100.00;101196.97;5039346;28;20033;-67
2023/08/07 01:02:55;;;;;;;12.07;4.30;;;;;;;11.29;100.00;101212.03;5037859;28;20037;-68
2023/08/07 01:05:23;;;;;;;9.27;3.70;;;;;;;11.31;100.00;101204.81;5028692;28;20028;-68
2023/08/07 01:07:51;;;;;;;14.32;4.40;;;;;;;11.27;100.00;101189.91;5050551;28;20052;-67
2023/08/07 01:10:18;;;;;;;12.93;4.35;;;;;;;11.24;100.00;101195.38;5036401;28;20586;-68
2023/08/07 01:12:53;;;;;;;14.73;4.18;;;;;;;11.26;100.00;101198.84;5041212;28;20301;-67
2023/08/07 01:15:25;;;;;;;11.63;4.25;;;;;;;11.17;100.00;101178.84;5041486;28;20025;-68
2023/08/07 01:17:53;;;;;;;15.88;5.13;;;;;;;11.25;100.00;101201.59;5036693;28;20025;-67
2023/08/07 01:20:19;;;;;;;11.27;4.13;;;;;;;11.23;100.00;101193.66;5043193;28;20450;-67
2023/08/07 01:22:45;;;;;;;10.93;4.18;;;;;;;11.23;100.00;101197.19;5048279;28;20547;-67
2023/08/07 01:25:10;;;;;;;14.13;4.03;;;;;;;11.23;100.00;101191.84;5041267;28;20201;-67
2023/08/07 01:27:39;;;;;;;9.65;4.82;;;;;;;11.28;100.00;101196.09;5049206;28;20024;-67
2023/08/07 01:30:34;;;;;;;14.45;4.35;;;;;;;11.27;100.00;101202.38;5037511;28;20082;-68
2023/08/07 01:33:46;;;;;;;12.43;4.25;;;;;;;11.24;100.00;101206.03;5043122;28;20040;-67
2023/08/07 01:36:11;;;;;;;10.40;3.90;;;;;;;11.22;100.00;101200.78;5053594;28;20240;-68
2023/08/07 01:38:37;;;;;;;12.88;4.55;;;;;;;11.25;100.00;101207.78;5044868;28;20538;-68
2023/08/07 01:41:03;;;;;;;12.57;4.22;;;;;;;11.23;100.00;101212.31;5045439;28;20536;-68
2023/08/07 01:43:31;;;;;;;13.05;5.00;;;;;;;11.25;100.00;101210.44;5040819;28;20551;-68
2023/08/07 01:45:57;;;;;;;12.00;4.30;;;;;;;11.25;100.00;101214.91;5042943;28;20120;-69
2023/08/07 01:48:22;;;;;;;12.80;5.18;;;;;;;11.29;100.00;101220.03;5041160;28;20480;-68
2023/08/07 01:50:47;;;;;;;10.13;4.32;;;;;;;11.26;100.00;101216.63;5057681;28;20105;-68
2023/08/07 01:53:13;;;;;;;11.35;4.20;;;;;;;11.23;100.00;101214.97;5042724;28;20574;-68
2023/08/07 01:55:38;;;;;;;11.20;4.20;;;;;;;11.21;100.00;101214.19;5042177;28;20450;-68
2023/08/07 01:58:03;;;;;;;15.05;4.15;;;;;;;11.18;100.00;101230.31;5043862;28;20031;-68
2023/08/07 02:00:29;;;;;;;13.10;3.92;;;;;;;11.14;100.00;101221.59;5051447;28;20025;-68
2023/08/07 02:02:54;;;;;;;11.95;3.85;;;;;;;11.16;100.00;101232.19;5045775;28;20048;-67
2023/08/07 02:05:20;;;;;;;10.75;4.18;;;;;;;11.14;100.00;101231.41;5047774;28;20513;-67
2023/08/07 02:07:45;;;;;;;9.82;4.18;;;;;;;11.13;100.00;101240.34;5041157;28;20411;-67
2023/08/07 02:10:11;;;;;;;13.20;4.03;;;;;;;11.07;100.00;101232.63;5038913;28;20373;-68
2023/08/07 02:12:36;;;;;;;10.68;4.32;;;;;;;11.07;100.00;101230.81;5037958;28;20380;-67
2023/08/07 02:15:02;;;;;;;13.60;4.32;;;;;;;11.11;100.00;101236.88;5036399;28;20395;-68
2023/08/07 02:17:29;;;;;;;10.48;4.25;;;;;;;11.09;100.00;101233.41;5039895;28;20040;-68
2023/08/07 02:19:55;;;;;;;13.00;4.75;;;;;;;11.10;100.00;101240.47;5042025;28;20035;-68
2023/08/07 02:22:20;;;;;;;14.77;4.75;;;;;;;11.08;100.00;101240.56;5039893;28;20149;-68
2023/08/07 02:24:46;;;;;;;11.45;4.20;;;;;;;11.04;100.00;101230.97;5043364;28;20098;-68
2023/08/07 02:27:11;;;;;;;9.77;3.67;;;;;;;11.05;100.00;101229.16;5034495;28;20021;-67
2023/08/07 02:29:37;;;;;;;11.23;4.10;;;;;;;11.06;100.00;101231.75;5042541;28;20032;-69
2023/08/07 02:32:02;;;;;;;11.73;4.20;;;;;;;11.08;100.00;101239.69;5034498;28;20455;-68
2023/08/07 02:34:29;;;;;;;11.65;4.38;;;;;;;11.07;100.00;101244.13;5042729;28;20033;-68
2023/08/07 02:36:54;;;;;;;9.40;3.85;;;;;;;11.09;100.00;101239.59;5042094;28;20025;-67
2023/08/07 02:39:20;;;;;;;9.15;4.20;;;;;;;11.12;100.00;101235.91;5051811;28;20043;-68
2023/08/07 02:41:45;;;;;;;12.25;4.28;;;;;;;11.10;100.00;101232.47;5036484;28;20054;-68
2023/08/07 02:44:11;;;;;;;9.63;3.95;;;;;;;11.11;100.00;101228.88;5040773;28;20041;-68
2023/08/07 02:46:36;;;;;;;10.52;4.50;;;;;;;11.09;100.00;101230.75;5039610;28;20020;-68
2023/08/07 02:49:02;;;;;;;12.98;4.60;;;;;;;11.11;100.00;101227.06;5044734;28;20562;-68
2023/08/07 02:51:27;;;;;;;12.55;4.78;;;;;;;11.11;100.00;101229.72;5045652;28;20037;-67
2023/08/07 02:53:52;;;;;;;10.95;4.32;;;;;;;11.13;100.00;101227.88;5039228;28;20475;-68
2023/08/07 02:56:18;;;;;;;12.77;4.03;;;;;;;11.16;100.00;101225.06;5043484;28;20021;-68
2023/08/07 02:58:43;;;;;;;9.88;3.97;;;;;;;11.20;100.00;101228.44;5038882;28;20028;-70
2023/08/07 03:01:09;;;;;;;12.93;4.25;;;;;;;11.23;100.00;101222.97;5042388;28;20421;-69
2023/08/07 03:03:34;;;;;;;10.05;3.80;;;;;;;11.22;100.00;101227.44;5043926;28;20033;-68
2023/08/07 03:06:00;;;;;;;8.95;4.18;;;;;;;11.26;100.00;101233.50;5045030;28;20801;-67
2023/08/07 03:08:25;;;;;;;11.45;4.22;;;;;;;11.28;100.00;101220.06;5041493;28;20505;-69
2023/08/07 03:10:58;;;;;;;12.00;4.00;;;;;;;11.28;100.00;101226.28;5041773;28;20238;-70
2023/08/07 03:13:26;;;;;;;10.20;4.75;;;;;;;11.30;100.00;101232.41;5040170;28;20027;-69
2023/08/07 03:16:03;;;;;;;12.40;4.45;;;;;;;11.34;100.00;101228.66;5036300;28;20039;-69
2023/08/07 03:18:28;;;;;;;12.07;4.38;;;;;;;11.35;100.00;101237.50;5037046;28;20036;-68
2023/08/07 03:20:57;;;;;;;14.27;4.28;;;;;;;11.35;100.00;101241.03;5039281;28;20331;-68
2023/08/07 03:23:24;;;;;;;10.88;4.20;;;;;;;11.34;100.00;101244.66;5041162;28;20097;-68
2023/08/07 03:25:50;;;;;;;10.75;4.10;;;;;;;11.29;100.00;101236.00;5048049;28;20032;-68
2023/08/07 03:28:15;;;;;;;12.82;4.43;;;;;;;11.32;100.00;101237.66;5035518;28;20016;-70
2023/08/07 03:30:41;;;;;;;13.88;4.60;;;;;;;11.28;100.00;101226.28;5045753;28;20032;-68
2023/08/07 03:33:06;;;;;;;13.35;4.60;;;;;;;11.30;100.00;101226.22;5043516;28;20214;-69
2023/08/07 03:35:32;;;;;;;16.33;4.45;;;;;;;11.30;100.00;101229.75;5037054;28;20032;-69
2023/08/07 03:37:57;;;;;;;9.45;4.28;;;;;;;11.31;100.00;101218.13;5044249;28;20191;-68
2023/08/07 03:40:23;;;;;;;8.13;3.65;;;;;;;11.34;100.00;101223.31;5056128;28;20064;-68
2023/08/07 03:42:48;;;;;;;10.38;4.70;;;;;;;11.34;100.00;101218.00;5040832;28;21430;-68
2023/08/07 03:45:14;;;;;;;14.90;5.35;;;;;;;11.33;100.00;101216.28;5035670;28;20040;-69
2023/08/07 03:47:39;;;;;;;10.60;5.00;;;;;;;11.36;100.00;101213.44;5039567;28;20041;-68
2023/08/07 03:50:05;;;;;;;11.82;4.88;;;;;;;11.37;100.00;101215.19;5047582;28;20040;-68
2023/08/07 03:52:31;;;;;;;12.70;4.63;;;;;;;11.37;100.00;101212.53;5041657;28;20120;-68
2023/08/07 03:54:56;;;;;;;11.30;4.47;;;;;;;11.39;100.00;101218.63;5040649;28;20698;-68
2023/08/07 03:57:21;;;;;;;10.43;4.60;;;;;;;11.43;100.00;101217.53;5052146;28;20174;-68
2023/08/07 03:59:47;;;;;;;9.30;3.92;;;;;;;11.41;100.00;101214.09;5035777;28;20063;-68
2023/08/07 04:02:12;;;;;;;10.85;4.57;;;;;;;11.44;100.00;101208.59;5041754;28;20029;-68
2023/08/07 04:04:38;;;;;;;10.15;4.35;;;;;;;11.41;100.00;101203.44;5041474;28;20086;-68
2023/08/07 04:07:03;;;;;;;9.63;4.40;;;;;;;11.51;100.00;101208.31;5038849;28;20045;-67
2023/08/07 04:09:29;;;;;;;9.85;4.25;;;;;;;11.51;100.00;101211.00;5033691;28;20481;-68
2023/08/07 04:11:55;;;;;;;12.32;4.55;;;;;;;11.55;100.00;101216.09;5036234;28;20052;-67
2023/08/07 04:14:20;;;;;;;11.88;4.50;;;;;;;11.58;100.00;101215.94;5037034;28;20036;-67
2023/08/07 04:16:45;;;;;;;10.88;4.35;;;;;;;11.60;100.00;101221.19;5033277;28;20026;-68
2023/08/07 04:19:11;;;;;;;9.68;4.32;;;;;;;11.64;100.00;101218.31;5040842;28;20021;-68
2023/08/07 04:21:36;;;;;;;11.05;4.32;;;;;;;11.59;100.00;101207.00;5035384;28;20082;-68
2023/08/07 04:24:07;;;;;;;9.00;3.88;;;;;;;11.70;100.00;101226.00;5039553;28;20027;-67
2023/08/07 04:26:34;;;;;;;11.07;4.57;;;;;;;11.70;100.00;101219.78;5037888;28;20024;-67
2023/08/07 04:28:59;;;;;;;10.50;4.22;;;;;;;11.65;100.00;101228.03;5032988;28;20447;-68
2023/08/07 04:31:24;;;;;;;9.98;4.20;;;;;;;11.66;100.00;101234.22;5040405;28;20417;-68
2023/08/07 04:33:50;;;;;;;8.32;4.03;;;;;;;11.70;100.00;101241.13;5036243;28;20263;-68
2023/08/07 04:36:15;;;;;;;8.05;4.00;;;;;;;11.68;100.00;101235.00;5043766;28;20020;-68
2023/08/07 04:38:41;;;;;;;10.70;4.10;;;;;;;11.69;100.00;101242.94;5042156;28;20031;-68
2023/08/07 04:41:06;;;;;;;11.48;4.38;;;;;;;11.72;100.00;101239.25;5044786;28;20125;-68
2023/08/07 04:43:32;;;;;;;9.30;3.97;;;;;;;11.72;100.00;101245.44;5055418;28;20147;-68
2023/08/07 04:45:57;;;;;;;10.88;4.20;;;;;;;11.75;100.00;101246.25;5044301;28;20043;-68
2023/08/07 04:48:25;;;;;;;8.98;4.10;;;;;;;11.70;100.00;101246.47;5046046;28;20040;-68
2023/08/07 04:50:50;;;;;;;9.82;3.92;;;;;;;11.71;100.00;101251.72;5046146;28;20033;-68
2023/08/07 04:53:15;;;;;;;12.07;4.53;;;;;;;11.73;100.00;101249.84;5042642;28;20569;-68
2023/08/07 04:55:41;;;;;;;11.35;4.25;;;;;;;11.69;100.00;101239.41;5045398;28;20029;-68
2023/08/07 04:58:06;;;;;;;9.00;4.00;;;;;;;11.74;100.00;101240.03;5044770;28;20110;-68
2023/08/07 05:00:32;;;;;;;11.13;4.40;;;;;;;11.74;100.00;101245.38;5044117;28;20031;-68
2023/08/07 05:02:58;;;;;;;9.07;4.10;;;;;;;11.77;100.00;101253.22;5045216;28;20724;-68
2023/08/07 05:05:23;;;;;;;9.98;4.03;;;;;;;11.78;100.00;101244.28;5049807;28;20024;-67
2023/08/07 05:07:49;;;;;;;7.25;3.78;;;;;;;11.84;100.00;101252.03;5045521;28;20522;-68
2023/08/07 05:10:14;;;;;;;9.32;3.88;;;;;;;11.87;100.00;101259.88;5041588;28;20032;-68
2023/08/07 05:12:40;;;;;;;10.15;3.50;;;;;;;11.88;100.00;101239.41;5043436;28;20041;-68
2023/08/07 05:15:06;;;;;;;9.50;3.60;;;;;;;11.91;100.00;101256.13;5050625;28;20051;-68
2023/08/07 05:17:32;;;;;;;10.38;3.33;;;;;;;11.92;100.00;101260.50;5043671;28;20145;-68
2023/08/07 05:19:57;;;;;;;7.57;3.10;;;;;;;11.92;100.00;101262.31;5045440;28;20028;-68
2023/08/07 05:22:22;;;;;;;10.88;3.40;;;;;;;11.92;100.00;101260.50;5047080;28;20139;-68
2023/08/07 05:24:48;;;;;;;8.73;3.80;;;;;;;11.93;100.00;101264.03;5046860;28;20056;-68
2023/08/07 05:27:14;;;;;;;9.23;3.78;;;;;;;11.90;100.00;101266.84;5044498;28;20825;-68
2023/08/07 05:29:45;;;;;;;7.40;3.28;;;;;;;11.91;100.00;101271.22;5040530;28;20107;-68
2023/08/07 05:32:13;;;;;;;9.90;3.92;;;;;;;11.91;100.00;101271.22;5042727;28;20024;-68
2023/08/07 05:34:38;;;;;;;6.82;2.95;;;;;;;11.89;100.00;101275.78;5045603;28;20036;-69
2023/08/07 05:37:04;;;;;;;11.43;3.40;;;;;;;11.78;100.00;101264.75;5038855;28;20033;-68
2023/08/07 05:39:29;;;;;;;9.95;3.65;;;;;;;11.82;100.00;101293.84;5043230;28;20025;-67
2023/08/07 05:41:57;;;;;;;8.20;3.58;;;;;;;11.73;100.00;101287.19;5038630;28;20490;-68
2023/08/07 05:44:23;;;;;;;10.65;3.65;;;;;;;11.59;100.00;101280.78;5042000;28;20032;-68
2023/08/07 05:46:48;;;;;;;8.20;3.28;;;;;;;11.63;100.00;101280.56;5044561;28;20043;-67
2023/08/07 05:49:14;;;;;;;8.40;3.60;;;;;;;11.64;100.00;101292.97;5039031;28;20049;-67
2023/08/07 05:51:39;;;;;;;10.35;4.13;;;;;;;11.68;100.00;101294.53;5042899;28;20075;-68
2023/08/07 05:54:04;;;;;;;11.88;3.65;;;;;;;11.72;100.00;101300.59;5044873;28;20020;-68
2023/08/07 05:56:30;;;;;;;8.98;3.92;;;;;;;11.71;100.00;101289.06;5045221;28;20495;-68
2023/08/07 05:58:55;;;;;;;18.15;4.10;;;;;;;11.82;100.00;101296.53;5041185;28;20033;-68
2023/08/07 06:01:21;;;;;;;9.02;3.53;;;;;;;11.86;100.00;101300.81;5037494;28;20484;-68
2023/08/07 06:03:46;;;;;;;9.57;3.60;;;;;;;11.89;100.00;101298.00;5037208;28;20134;-68
2023/08/07 06:06:12;;;;;;;7.72;3.83;;;;;;;11.96;100.00;101315.44;5037186;28;20266;-68
2023/08/07 06:08:37;;;;;;;7.25;3.38;;;;;;;12.03;100.00;101309.78;5042816;28;20394;-68
2023/08/07 06:11:03;;;;;;;8.52;3.60;;;;;;;12.09;100.00;101307.69;5040915;28;20048;-68
2023/08/07 06:13:29;;;;;;;9.25;3.42;;;;;;;12.16;100.00;101308.22;5047842;28;20029;-68
2023/08/07 06:15:54;;;;;;;11.75;3.55;;;;;;;12.18;100.00;101288.53;5048030;28;20024;-68
2023/08/07 06:18:20;;;;;;;9.20;3.75;;;;;;;12.34;100.00;101307.31;5037487;28;20737;-69
2023/08/07 06:20:46;;;;;;;8.75;3.47;;;;;;;12.43;100.00;101312.19;5034371;28;20606;-69
2023/08/07 06:23:11;;;;;;;6.78;3.33;;;;;;;12.48;100.00;101306.59;5043723;28;20032;-69
2023/08/07 06:25:37;;;;;;;10.50;3.65;;;;;;;12.51;100.00;101317.13;5040761;28;20036;-68
2023/08/07 06:28:02;;;;;;;12.75;3.63;;;;;;;12.61;100.00;101310.38;5040698;28;20115;-68
2023/08/07 06:30:28;;;;;;;9.80;3.30;;;;;;;12.69;100.00;101317.97;5045103;28;20033;-68
2023/08/07 06:32:53;;;;;;;9.07;3.40;;;;;;;12.71;100.00;101329.47;5036134;28;20031;-69
2023/08/07 06:35:18;;;;;;;10.93;3.30;;;;;;;12.70;100.00;101325.91;5034009;28;20029;-68
2023/08/07 06:37:44;;;;;;;8.70;3.08;;;;;;;12.76;100.00;101327.41;5047434;28;20044;-68
2023/08/07 06:40:09;;;;;;;9.98;3.47;;;;;;;12.82;100.00;101323.53;5054670;28;20486;-68
2023/08/07 06:42:35;;;;;;;12.52;4.18;;;;;;;12.88;100.00;101328.59;5042998;28;20026;-67
2023/08/07 06:45:00;;;;;;;11.32;3.60;;;;;;;12.95;100.00;101319.28;5032083;28;20028;-69
2023/08/07 06:47:25;;;;;;;10.55;3.60;;;;;;;13.13;100.00;101336.16;5040001;28;20081;-69
2023/08/07 06:49:51;;;;;;;7.63;2.53;;;;;;;13.23;100.00;101340.09;5046642;28;20056;-68
2023/08/07 06:52:16;;;;;;;10.38;3.30;;;;;;;13.33;100.00;101335.94;5042186;28;20064;-68
2023/08/07 06:54:42;;;;;;;9.18;3.05;;;;;;;13.48;100.00;101355.66;5046533;28;20040;-69
2023/08/07 06:57:07;;;;;;;11.00;3.63;;;;;;;13.55;100.00;101334.81;5038158;28;20063;-68
2023/08/07 06:59:32;;;;;;;7.78;2.80;;;;;;;13.50;100.00;101328.81;5043060;28;20739;-69
2023/08/07 07:01:58;;;;;;;9.90;2.90;;;;;;;13.62;100.00;101346.88;5046257;28;20078;-69
2023/08/07 07:04:23;;;;;;;5.90;2.72;;;;;;;13.68;100.00;101347.41;5044201;28;20052;-70
2023/08/07 07:06:49;;;;;;;12.40;3.60;;;;;;;13.82;100.00;101349.28;5045298;28;20024;-70
2023/08/07 07:09:16;;;;;;;8.48;2.95;;;;;;;13.87;100.00;101360.59;5047141;28;20025;-69
2023/08/07 07:11:43;;;;;;;9.80;3.17;;;;;;;13.99;100.00;101361.72;5038506;28;20072;-70
2023/08/07 07:14:08;;;;;;;14.18;3.30;;;;;;;14.03;100.00;101368.63;5041047;28;20120;-69
2023/08/07 07:16:33;;;;;;;8.25;2.50;;;;;;;14.15;100.00;101354.53;5038466;28;20364;-70
2023/08/07 07:18:59;;;;;;;8.07;2.80;;;;;;;14.43;100.00;101359.16;5044264;28;20042;-70
2023/08/07 07:21:25;;;;;;;8.27;2.60;;;;;;;14.41;100.00;101363.72;5040926;28;20060;-70
2023/08/07 07:23:52;;;;;;;10.65;2.90;;;;;;;14.67;100.00;101370.28;5036117;28;20086;-70
2023/08/07 07:26:17;;;;;;;8.60;2.47;;;;;;;15.19;99.18;101371.59;5041547;28;20086;-70
2023/08/07 07:28:42;;;;;;;7.38;2.40;;;;;;;15.34;96.60;101373.34;5044842;28;20020;-71
2023/08/07 07:31:11;;;;;;;7.70;2.53;;;;;;;15.12;95.24;101370.25;5046106;28;20059;-71
2023/08/07 07:33:38;;;;;;;10.90;2.75;;;;;;;14.90;95.63;101386.78;5042977;28;20427;-71
2023/08/07 07:36:05;;;;;;;8.52;2.70;;;;;;;14.83;97.13;101386.28;5042593;28;20036;-71
2023/08/07 07:38:30;;;;;;;10.10;2.97;;;;;;;14.74;96.97;101392.19;5041007;28;20087;-71
2023/08/07 07:40:56;;;;;;;8.93;2.90;;;;;;;14.65;98.34;101400.78;5038940;28;20554;-70
2023/08/07 07:43:23;;;;;;;7.03;2.30;;;;;;;14.65;97.62;101406.13;5042356;28;20044;-71
2023/08/07 07:45:48;;;;;;;7.75;2.85;;;;;;;14.61;99.16;101397.41;5035215;28;20111;-71
2023/08/07 07:48:13;;;;;;;10.38;3.42;;;;;;;14.78;100.00;101404.44;5041796;28;20484;-71
2023/08/07 07:50:39;;;;;;;10.10;3.65;;;;;;;14.92;97.26;101412.53;5032515;28;20381;-71
2023/08/07 07:53:04;;;;;;;8.35;2.72;;;;;;;15.02;94.01;101403.94;5040697;28;20067;-72
2023/08/07 07:55:30;;;;;;;10.55;2.80;;;;;;;15.18;94.19;101400.22;5037566;28;20028;-71
2023/08/07 07:57:55;;;;;;;8.75;2.60;;;;;;;15.27;90.96;101404.16;5035451;28;20031;-72
2023/08/07 08:00:25;;;;;;;7.97;2.17;;;;;;;15.44;90.94;101401.31;5039586;28;20021;-71
2023/08/07 08:02:51;;;;;;;6.07;2.38;;;;;;;15.66;88.59;101406.19;5037417;28;20063;-71
2023/08/07 08:05:17;;;;;;;11.93;2.38;;;;;;;15.64;87.52;101420.66;5043415;28;20507;-71
2023/08/07 08:07:43;;;;;;;8.13;2.55;;;;;;;15.49;86.72;101414.41;5041759;28;20033;-71
2023/08/07 08:10:08;;;;;;;9.32;2.30;;;;;;;15.45;86.98;101411.06;5034029;28;20032;-72
2023/08/07 08:12:35;;;;;;;6.38;2.38;;;;;;;15.57;89.52;101424.69;5038608;28;20168;-71
2023/08/07 08:15:01;;;;;;;6.07;2.17;;;;;;;15.60;89.79;101417.31;5037466;28;20416;-72
2023/08/07 08:17:27;;;;;;;6.75;2.58;;;;;;;15.77;89.35;101429.69;5042156;28;20032;-72
2023/08/07 08:19:52;;;;;;;9.30;3.00;;;;;;;16.33;87.17;101433.22;5041512;28;20470;-72
2023/08/07 08:22:18;;;;;;;6.53;2.30;;;;;;;17.78;83.31;101427.78;5039040;28;20032;-72
2023/08/07 08:24:44;;;;;;;5.03;1.85;;;;;;;19.14;77.38;101439.22;5037892;28;20029;-72
2023/08/07 08:27:10;;;;;;;7.55;2.03;;;;;;;19.53;73.62;101420.00;5040667;28;20308;-72
2023/08/07 08:29:35;;;;;;;8.40;2.40;;;;;;;20.24;68.89;101429.56;5036679;28;20029;-73
2023/08/07 08:32:00;;;;;;;6.57;2.20;;;;;;;21.05;65.49;101411.91;5047380;28;20032;-72
2023/08/07 08:34:27;;;;;;;6.15;2.72;;;;;;;22.09;64.06;101410.84;5049352;28;20033;-73
2023/08/07 08:36:52;;;;;;;7.90;2.00;;;;;;;22.80;58.96;101434.25;5048135;28;20021;-72
2023/08/07 08:39:18;;;;;;;7.20;1.80;;;;;;;23.54;56.27;101430.88;5052022;28;20020;-73
2023/08/07 08:41:47;;;;;;;7.35;2.08;;;;;;;23.32;53.61;101435.63;5034268;28;20029;-72
2023/08/07 08:44:14;;;;;;;3.97;1.70;;;;;;;23.00;52.80;101460.41;5043167;28;20024;-73
2023/08/07 08:46:42;;;;;;;5.35;1.70;;;;;;;22.76;52.13;101444.53;5046296;28;20032;-73
2023/08/07 08:49:10;;;;;;;3.53;1.75;;;;;;;23.24;51.48;101448.22;5047919;28;20067;-71
2023/08/07 08:51:36;;;;;;;4.97;1.42;;;;;;;23.63;48.59;101446.28;5038006;28;20056;-72
2023/08/07 08:54:02;;;;;;;4.60;1.75;;;;;;;22.60;47.91;101447.78;5041847;28;20059;-71
2023/08/07 08:56:29;;;;;;;3.25;1.40;;;;;;;22.56;46.46;101456.34;5045750;28;20036;-71
2023/08/07 08:58:58;;;;;;;3.88;1.23;;;;;;;22.53;47.32;101445.78;5046558;28;20071;-72
2023/08/07 09:01:24;;;;;;;3.53;1.35;;;;;;;22.65;47.52;101455.50;5043630;28;20057;-71
2023/08/07 09:03:52;;;;;;;5.38;1.55;;;;;;;23.24;44.57;101437.34;5063654;28;20349;-71
2023/08/07 09:06:17;;;;;;;4.30;2.00;;;;;;;23.01;44.05;101453.13;5039292;28;20055;-71
2023/08/07 09:08:44;;;;;;;4.63;1.70;;;;;;;22.34;47.53;101461.03;5040700;28;20024;-71
2023/08/07 09:11:13;;;;;;;4.85;1.63;;;;;;;22.27;48.42;101465.28;5041286;28;20095;-72
2023/08/07 09:13:40;;;;;;;4.30;1.67;;;;;;;23.10;46.48;101463.09;5035600;28;20032;-72
2023/08/07 09:16:11;;;;;;;3.17;1.52;;;;;;;24.13;43.90;101464.97;5038473;28;20041;-72
2023/08/07 09:18:36;;;;;;;5.70;1.65;;;;;;;24.98;40.64;101460.09;5063095;28;20581;-72
2023/08/07 09:21:02;;;;;;;4.90;1.75;;;;;;;25.52;39.00;101456.28;5040537;28;20025;-72
2023/08/07 09:23:28;;;;;;;5.05;1.95;;;;;;;26.17;36.90;101461.25;5043748;28;20036;-72
2023/08/07 09:26:04;;;;;;;3.00;1.30;;;;;;;25.77;39.45;101460.03;5039679;28;20055;-73
2023/08/07 09:28:30;;;;;;;3.33;1.50;;;;;;;25.74;36.90;101465.78;5041786;28;20036;-73
2023/08/07 09:30:55;;;;;;;3.92;1.60;;;;;;;26.02;38.37;101471.94;5037318;28;20056;-74
2023/08/07 09:33:30;;;;;;;5.93;2.28;;;;;;;26.51;37.14;101474.03;5046441;28;20025;-74
2023/08/07 09:36:01;;;;;;;4.18;1.67;;;;;;;25.84;37.50;101473.91;5055000;28;20024;-74
2023/08/07 09:38:32;;;;;;;2.65;1.48;;;;;;;25.93;36.42;101477.53;5040026;28;20479;-75
2023/08/07 09:40:59;;;;;;;4.60;1.50;;;;;;;25.47;36.87;101474.16;5053945;28;20134;-74
2023/08/07 09:43:25;;;;;;;6.95;2.20;;;;;;;24.32;38.30;101483.88;5050144;28;20515;-73
2023/08/07 09:45:50;;;;;;;4.03;2.05;;;;;;;24.30;40.79;101491.38;5044761;28;20037;-74
2023/08/07 09:48:27;;;;;;;5.07;2.05;;;;;;;24.25;40.93;101477.38;5037393;28;20021;-74
2023/08/07 09:50:53;;;;;;;4.97;2.30;;;;;;;25.16;37.59;101488.19;5044856;28;20398;-74
2023/08/07 09:53:26;;;;;;;4.90;1.60;;;;;;;25.80;37.25;101489.72;5047469;28;20302;-74
2023/08/07 09:55:52;;;;;;;;;;;;;;;27.02;36.29;101493.88;5039776;28;20022;-75
2023/08/07 09:58:17;;;;;;;4.88;1.75;;;;;;;26.51;33.82;101490.41;5036931;28;19951;-74
2023/08/07 10:00:46;;;;;;;4.55;1.90;;;;;;;26.80;34.60;101500.88;5039424;28;20058;-74
2023/08/07 10:03:11;;;;;;;5.32;2.08;;;;;;;25.25;36.09;101497.31;5052993;28;20543;-75
2023/08/07 10:05:37;;;;;;;4.38;1.70;;;;;;;25.40;37.19;101498.44;5031461;28;20026;-74
2023/08/07 10:08:03;;;;;;;4.90;1.83;;;;;;;26.58;35.03;101505.06;5035364;28;20115;-74
2023/08/07 10:10:28;;;;;;;2.88;1.45;;;;;;;27.96;33.44;101508.84;5042003;28;20037;-75
2023/08/07 10:13:00;;;;;;;5.60;2.00;;;;;;;28.16;30.85;101498.34;5036224;28;20025;-75
2023/08/07 10:15:26;;;;;;;3.55;1.70;;;;;;;28.54;30.64;101508.47;5035811;28;20052;-75
2023/08/07 10:17:55;;;;;;;4.45;1.38;;;;;;;28.30;31.02;101508.59;5032632;28;20033;-76
2023/08/07 10:20:21;;;;;;;3.88;1.70;;;;;;;28.51;32.15;101495.16;5035945;28;20024;-75
2023/08/07 10:22:47;;;;;;;4.00;1.75;;;;;;;29.21;31.05;101485.06;5035201;28;20098;-75
2023/08/07 10:25:13;;;;;;;3.83;1.70;;;;;;;29.80;28.77;101492.56;5036080;28;20038;-75
2023/08/07 10:27:41;;;;;;;4.43;1.48;;;;;;;29.23;27.87;101497.56;5036954;28;20031;-75
2023/08/07 10:30:12;;;;;;;3.67;1.38;;;;;;;28.50;29.87;101511.75;5033376;28;20048;-76
2023/08/07 10:32:38;;;;;;;5.18;1.70;;;;;;;27.88;30.25;101514.34;5050277;28;20491;-76
2023/08/07 10:35:04;;;;;;;4.18;1.60;;;;;;;26.12;33.66;101514.59;5041103;28;20025;-75
2023/08/07 10:37:44;;;;;;;4.72;1.80;;;;;;;25.01;37.05;101533.34;5034159;28;20770;-75
2023/08/07 10:40:11;;;;;;;2.63;1.48;;;;;;;25.64;33.41;101530.47;5035471;28;20028;-73
2023/08/07 10:42:58;;;;;;;3.03;1.35;;;;;;;27.24;31.55;101531.50;5032088;28;20412;-73
2023/08/07 10:45:26;;;;;;;8.25;2.17;;;;;;;28.40;30.76;101520.19;5033567;28;20048;-73
2023/08/07 10:48:10;;;;;;;4.30;2.20;;;;;;;29.35;29.73;101527.28;5044698;28;20064;-74
2023/08/07 10:50:50;;;;;;;4.95;1.77;;;;;;;29.31;29.60;101518.59;5044727;28;20074;-74
2023/08/07 10:53:28;;;;;;;3.88;1.80;;;;;;;29.20;30.35;101525.34;5042634;28;20040;-73
2023/08/07 10:55:57;;;;;;;5.13;1.77;;;;;;;27.73;30.85;101534.22;5041388;28;20141;-73
2023/08/07 10:58:29;;;;;;;9.43;4.88;;;;;;;25.36;33.50;101543.38;5045361;28;20044;-73
2023/08/07 11:01:20;;;;;;;3.55;2.03;;;;;;;25.68;36.35;101537.31;5042217;28;20025;-73
2023/08/07 11:03:55;;;;;;;5.28;2.00;;;;;;;27.47;32.95;101537.13;5042046;28;20033;-74
2023/08/07 11:06:31;;;;;;;2.75;1.55;;;;;;;28.58;30.91;101541.81;5041529;28;20116;-74
2023/08/07 11:08:59;;;;;;;4.35;1.63;;;;;;;29.10;29.67;101535.72;5042571;28;20400;-74
2023/08/07 11:11:26;;;;;;;2.72;1.42;;;;;;;28.51;29.48;101538.13;5045681;28;20112;-73
2023/08/07 11:13:52;;;;;;;2.55;1.50;;;;;;;28.68;28.47;101526.03;5046574;28;20510;-75
2023/08/07 11:16:20;;;;;;;4.93;1.50;;;;;;;27.81;29.73;101538.84;5045877;28;20053;-74